Time;durP1;ratioP1;P1;durP2;ratioP2;P2;SDS_P1;SDS_P2;PMS_P1;PMS_P2;Temp;Humidity;BMP_temperature;BMP_pressure;BME280_temperature;BME280_humidity;BME280_pressure;Samples;Min_cycle;Max_cycle;Signal;HPM_P1;HPM_P2
2023/04/14 00:00:33;;;;;;;6.15;2.70;;;6.70;99.90;;;;;;5075810;28;20167;-51
2023/04/14 00:03:02;;;;;;;7.50;3.42;;;6.70;99.90;;;;;;5068266;28;20064;-52
2023/04/14 00:05:29;;;;;;;4.82;3.05;;;6.70;99.90;;;;;;5067623;28;20032;-53
2023/04/14 00:07:54;;;;;;;5.95;2.47;;;6.80;99.90;;;;;;5113709;27;20029;-50
2023/04/14 00:10:20;;;;;;;4.93;2.47;;;6.70;99.90;;;;;;5084293;28;20024;-50
2023/04/14 00:12:45;;;;;;;6.38;2.92;;;6.80;99.90;;;;;;5072183;28;20025;-50
2023/04/14 00:15:11;;;;;;;5.40;2.40;;;6.80;99.90;;;;;;5076089;28;20032;-51
2023/04/14 00:17:37;;;;;;;6.00;2.78;;;6.80;99.90;;;;;;5066499;28;20021;-48
2023/04/14 00:20:03;;;;;;;3.85;2.58;;;6.80;99.90;;;;;;5082493;28;20376;-50
2023/04/14 00:22:28;;;;;;;5.10;2.40;;;6.80;99.90;;;;;;5072260;28;20021;-50
2023/04/14 00:24:54;;;;;;;5.05;2.63;;;6.80;99.90;;;;;;5083231;28;20031;-50
2023/04/14 00:27:20;;;;;;;4.20;2.53;;;6.80;99.90;;;;;;5071314;28;20052;-50
2023/04/14 00:29:45;;;;;;;4.45;2.00;;;6.80;99.90;;;;;;5074778;28;20020;-53
2023/04/14 00:32:11;;;;;;;3.40;2.67;;;6.90;99.90;;;;;;5069889;28;20098;-49
2023/04/14 00:34:36;;;;;;;4.60;2.80;;;6.80;99.90;;;;;;5080387;28;20562;-53
2023/04/14 00:37:02;;;;;;;5.75;1.83;;;6.80;99.90;;;;;;5071721;28;20035;-50
2023/04/14 00:39:27;;;;;;;4.90;1.95;;;6.90;99.90;;;;;;5077428;28;20105;-49
2023/04/14 00:41:53;;;;;;;5.78;1.90;;;6.90;99.90;;;;;;5071537;28;20031;-47
2023/04/14 00:44:18;;;;;;;4.45;2.45;;;6.90;99.90;;;;;;5074884;28;20049;-53
2023/04/14 00:46:44;;;;;;;6.03;2.47;;;6.90;99.90;;;;;;5071245;28;20012;-46
2023/04/14 00:49:10;;;;;;;2.95;2.13;;;6.90;99.90;;;;;;5078065;28;20043;-51
2023/04/14 00:51:36;;;;;;;4.97;2.08;;;6.90;99.90;;;;;;5069572;28;20107;-48
2023/04/14 00:54:04;;;;;;;3.95;2.38;;;6.90;99.90;;;;;;5072416;28;20412;-48
2023/04/14 00:56:30;;;;;;;2.58;1.90;;;6.90;99.90;;;;;;5079262;28;20093;-48
2023/04/14 00:58:58;;;;;;;4.80;2.40;;;6.90;99.90;;;;;;5071602;28;20052;-51
2023/04/14 01:01:24;;;;;;;5.45;2.78;;;7.00;99.90;;;;;;5071129;28;20094;-48
2023/04/14 01:03:51;;;;;;;4.05;2.40;;;6.90;99.90;;;;;;5075452;28;20409;-49
2023/04/14 01:06:16;;;;;;;4.20;2.30;;;7.00;99.90;;;;;;5072557;28;20090;-47
2023/04/14 01:08:42;;;;;;;4.43;2.20;;;7.00;99.90;;;;;;5072568;28;20040;-46
2023/04/14 01:11:22;;;;;;;4.43;2.25;;;7.00;99.90;;;;;;5078640;28;20058;-46
2023/04/14 01:14:16;;;;;;;3.50;1.85;;;7.00;99.90;;;;;;5066707;28;20115;-49
2023/04/14 01:16:49;;;;;;;2.50;1.77;;;7.00;99.90;;;;;;5073160;28;20505;-47
2023/04/14 01:19:41;;;;;;;3.00;1.42;;;7.00;99.90;;;;;;5069095;28;20155;-45
2023/04/14 01:22:11;;;;;;;3.05;1.20;;;7.00;99.90;;;;;;5059888;28;20494;-48
2023/04/14 01:25:02;;;;;;;2.10;1.80;;;7.00;99.90;;;;;;5069485;28;20036;-47
2023/04/14 01:27:48;;;;;;;3.92;1.58;;;7.10;99.90;;;;;;5070579;28;20107;-48
2023/04/14 01:30:42;;;;;;;3.47;1.45;;;7.00;99.90;;;;;;5073333;28;20081;-45
2023/04/14 01:33:14;;;;;;;1.92;1.48;;;7.00;99.90;;;;;;5067151;28;20048;-51
2023/04/14 01:35:48;;;;;;;1.55;1.30;;;7.00;99.90;;;;;;5069172;28;20112;-48
2023/04/14 01:38:35;;;;;;;1.63;1.38;;;7.00;99.90;;;;;;5067890;28;20052;-47
2023/04/14 01:41:05;;;;;;;1.85;1.20;;;7.00;99.90;;;;;;5053266;28;20051;-49
2023/04/14 01:43:32;;;;;;;3.95;1.30;;;7.00;99.90;;;;;;5075402;28;20064;-48
2023/04/14 01:46:03;;;;;;;3.10;1.20;;;7.00;99.90;;;;;;5080493;28;20059;-44
2023/04/14 01:48:31;;;;;;;3.70;1.65;;;7.00;99.90;;;;;;5062996;28;20038;-46
2023/04/14 01:50:58;;;;;;;3.28;1.30;;;7.00;99.90;;;;;;5070528;28;20344;-50
2023/04/14 01:53:26;;;;;;;4.00;1.50;;;7.00;99.90;;;;;;5085116;28;20039;-47
2023/04/14 01:55:53;;;;;;;3.22;1.60;;;7.10;99.90;;;;;;5071608;28;20036;-48
2023/04/14 01:58:20;;;;;;;2.35;1.40;;;7.00;99.90;;;;;;5076253;28;20396;-45
2023/04/14 02:00:48;;;;;;;3.63;1.75;;;7.10;99.90;;;;;;5080610;28;20024;-46
2023/04/14 02:03:16;;;;;;;2.97;1.63;;;7.10;99.90;;;;;;5083367;28;20060;-46
2023/04/14 02:05:42;;;;;;;4.13;1.48;;;7.10;99.90;;;;;;5083330;28;20028;-49
2023/04/14 02:08:12;;;;;;;2.72;1.60;;;7.10;99.90;;;;;;5077521;28;20028;-47
2023/04/14 02:10:41;;;;;;;1.33;1.23;;;7.10;99.90;;;;;;5070279;28;20037;-47
2023/04/14 02:13:09;;;;;;;5.30;1.98;;;7.10;99.90;;;;;;5083839;28;20110;-47
2023/04/14 02:15:35;;;;;;;3.00;1.50;;;7.10;99.90;;;;;;5069613;28;20034;-48
2023/04/14 02:18:04;;;;;;;2.13;1.42;;;7.10;99.90;;;;;;5067024;28;20028;-45
2023/04/14 02:20:31;;;;;;;2.50;1.58;;;7.10;99.90;;;;;;5071213;28;20028;-45
2023/04/14 02:22:56;;;;;;;4.55;1.58;;;7.10;99.90;;;;;;5077905;28;20354;-46
2023/04/14 02:25:25;;;;;;;3.05;1.67;;;7.10;99.90;;;;;;5074469;28;20431;-48
2023/04/14 02:28:01;;;;;;;3.13;1.58;;;7.10;99.90;;;;;;5068601;28;20556;-51
2023/04/14 02:30:37;;;;;;;4.90;2.65;;;7.20;99.90;;;;;;5055597;28;20056;-47
2023/04/14 02:33:07;;;;;;;2.50;2.15;;;7.10;99.90;;;;;;5064721;28;20492;-51
2023/04/14 02:35:47;;;;;;;4.10;2.80;;;7.10;99.90;;;;;;5049586;28;20133;-47
2023/04/14 02:38:22;;;;;;;5.00;2.53;;;7.10;99.90;;;;;;5060529;28;20032;-49
2023/04/14 02:40:48;;;;;;;5.05;2.55;;;7.10;99.90;;;;;;5049401;28;20103;-48
2023/04/14 02:43:25;;;;;;;3.83;2.35;;;7.10;99.90;;;;;;5086226;28;20043;-49
2023/04/14 02:45:53;;;;;;;3.72;1.90;;;7.20;99.90;;;;;;5054434;28;20024;-48
2023/04/14 02:48:23;;;;;;;3.05;2.15;;;7.20;99.90;;;;;;5076811;28;20039;-47
2023/04/14 02:50:52;;;;;;;2.72;2.17;;;7.20;99.90;;;;;;5049066;28;20082;-47
2023/04/14 02:53:21;;;;;;;4.28;2.15;;;7.20;99.90;;;;;;5074794;28;20721;-45
2023/04/14 02:55:49;;;;;;;3.05;2.30;;;7.20;99.90;;;;;;5068867;28;20036;-50
2023/04/14 02:58:15;;;;;;;3.05;2.25;;;7.30;99.90;;;;;;5079843;28;20027;-45
2023/04/14 03:00:42;;;;;;;4.05;2.03;;;7.30;99.90;;;;;;5069882;28;20094;-47
2023/04/14 03:03:10;;;;;;;6.30;2.10;;;7.30;99.90;;;;;;5075953;28;20031;-45
2023/04/14 03:05:37;;;;;;;4.80;2.00;;;7.30;99.90;;;;;;5074069;28;20022;-44
2023/04/14 03:08:04;;;;;;;4.43;2.00;;;7.30;99.90;;;;;;5075915;28;20112;-52
2023/04/14 03:10:30;;;;;;;3.40;1.80;;;7.30;99.90;;;;;;5068543;28;20021;-46
2023/04/14 03:13:00;;;;;;;2.60;1.73;;;7.30;99.90;;;;;;5084955;28;20475;-46
2023/04/14 03:15:26;;;;;;;2.50;1.90;;;7.30;99.90;;;;;;5067129;28;20032;-49
2023/04/14 03:17:56;;;;;;;3.35;1.75;;;7.30;99.90;;;;;;5086492;28;20055;-53
2023/04/14 03:20:22;;;;;;;2.58;1.65;;;7.30;99.90;;;;;;5070626;28;20034;-48
2023/04/14 03:23:00;;;;;;;4.15;1.70;;;7.30;99.90;;;;;;5073208;28;20044;-47
2023/04/14 03:25:31;;;;;;;5.32;2.20;;;7.30;99.90;;;;;;5071529;28;20024;-49
2023/04/14 03:27:59;;;;;;;5.05;2.00;;;7.20;99.90;;;;;;5086565;28;20013;-47
2023/04/14 03:30:29;;;;;;;5.00;2.10;;;7.20;99.90;;;;;;5067548;28;20093;-46
2023/04/14 03:33:02;;;;;;;2.75;1.73;;;7.20;99.90;;;;;;5073928;28;20067;-51
2023/04/14 03:35:29;;;;;;;4.53;2.40;;;7.20;99.90;;;;;;5048614;28;20120;-45
2023/04/14 03:37:58;;;;;;;3.78;1.60;;;7.20;99.90;;;;;;5077881;28;20039;-50
2023/04/14 03:40:29;;;;;;;3.65;1.70;;;7.20;99.90;;;;;;5068946;28;20021;-48
2023/04/14 03:42:57;;;;;;;4.22;1.70;;;7.30;99.90;;;;;;5066267;28;20043;-52
2023/04/14 03:45:24;;;;;;;3.90;1.83;;;7.20;99.90;;;;;;5071349;28;20082;-50
2023/04/14 03:47:54;;;;;;;4.05;2.05;;;7.30;99.90;;;;;;5077636;28;20076;-45
2023/04/14 03:50:22;;;;;;;4.30;2.08;;;7.30;99.90;;;;;;5074738;28;20081;-51
2023/04/14 03:52:49;;;;;;;6.28;2.67;;;7.30;99.90;;;;;;5077057;28;20035;-45
2023/04/14 03:55:17;;;;;;;4.00;2.45;;;7.30;99.90;;;;;;5076542;28;20034;-50
2023/04/14 03:57:45;;;;;;;4.05;2.70;;;7.40;99.90;;;;;;5076231;28;20047;-47
2023/04/14 04:00:12;;;;;;;5.03;2.75;;;7.40;99.90;;;;;;5090642;28;20077;-50
2023/04/14 04:02:40;;;;;;;4.20;2.15;;;7.40;99.90;;;;;;5084029;28;20021;-48
2023/04/14 04:05:07;;;;;;;4.85;2.13;;;7.40;99.90;;;;;;5075991;28;20020;-47
2023/04/14 04:07:34;;;;;;;4.38;1.98;;;7.40;99.90;;;;;;5085783;28;20035;-49
2023/04/14 04:10:03;;;;;;;2.10;1.70;;;7.40;99.90;;;;;;5068621;28;20099;-49
2023/04/14 04:12:30;;;;;;;2.35;1.73;;;7.50;99.90;;;;;;5075939;28;20050;-50
2023/04/14 04:14:56;;;;;;;2.95;2.00;;;7.50;99.90;;;;;;5090924;28;20028;-46
2023/04/14 04:17:23;;;;;;;2.67;1.42;;;7.50;99.90;;;;;;5071629;28;20034;-50
2023/04/14 04:19:49;;;;;;;2.78;1.85;;;7.50;99.90;;;;;;5092277;28;20024;-48
2023/04/14 04:22:18;;;;;;;3.13;1.83;;;7.40;99.90;;;;;;5070821;28;20036;-45
2023/04/14 04:24:44;;;;;;;3.92;2.00;;;7.50;99.90;;;;;;5084795;28;20762;-49
2023/04/14 04:27:10;;;;;;;2.67;1.83;;;7.40;99.90;;;;;;5071112;28;20029;-50
2023/04/14 04:29:37;;;;;;;3.47;1.73;;;7.50;99.90;;;;;;5092063;28;20042;-47
2023/04/14 04:32:04;;;;;;;3.05;1.75;;;7.50;99.90;;;;;;5071381;28;20078;-48
2023/04/14 04:34:31;;;;;;;3.33;2.17;;;7.50;99.90;;;;;;5087686;28;20071;-47
2023/04/14 04:36:59;;;;;;;4.93;2.38;;;7.50;99.90;;;;;;5089910;28;20391;-46
2023/04/14 04:39:25;;;;;;;4.10;1.85;;;7.50;99.90;;;;;;5051582;28;20510;-48
2023/04/14 04:42:00;;;;;;;6.50;1.80;;;7.50;99.90;;;;;;5075446;28;20017;-44
2023/04/14 04:44:25;;;;;;;1.90;1.60;;;7.50;99.90;;;;;;5069160;28;20516;-48
2023/04/14 04:46:52;;;;;;;3.90;1.58;;;7.50;99.90;;;;;;5098833;28;20032;-49
2023/04/14 04:49:18;;;;;;;2.13;1.55;;;7.60;99.90;;;;;;5086765;28;20028;-51
2023/04/14 04:51:44;;;;;;;4.00;1.73;;;7.60;99.90;;;;;;5089951;28;20032;-47
2023/04/14 04:54:10;;;;;;;4.18;1.92;;;7.60;99.90;;;;;;5068069;28;20150;-47
2023/04/14 04:56:36;;;;;;;4.25;1.65;;;7.60;99.90;;;;;;5074434;28;20158;-45
2023/04/14 04:59:02;;;;;;;4.47;1.80;;;7.60;99.90;;;;;;5085087;28;20036;-46
2023/04/14 05:01:27;;;;;;;6.30;1.95;;;7.60;99.90;;;;;;5075227;28;20025;-47
2023/04/14 05:03:53;;;;;;;2.90;1.80;;;7.60;99.90;;;;;;5072163;28;20047;-49
2023/04/14 05:06:19;;;;;;;3.20;2.20;;;7.60;99.90;;;;;;5067331;28;20031;-46
2023/04/14 05:08:45;;;;;;;2.53;1.67;;;7.60;99.90;;;;;;5073053;28;20125;-49
2023/04/14 05:11:10;;;;;;;4.53;2.05;;;7.70;99.90;;;;;;5069630;28;20024;-45
2023/04/14 05:13:36;;;;;;;3.70;2.05;;;7.70;99.90;;;;;;5080972;28;20077;-47
2023/04/14 05:16:09;;;;;;;4.07;2.13;;;7.70;99.90;;;;;;5079496;28;20033;-48
2023/04/14 05:18:35;;;;;;;4.05;2.10;;;7.70;99.90;;;;;;5081072;28;20028;-47
2023/04/14 05:21:11;;;;;;;4.68;2.30;;;7.70;99.90;;;;;;5086027;28;20459;-46
2023/04/14 05:23:37;;;;;;;;;;;7.70;99.90;;;;;;5067584;28;20037;-44
2023/04/14 05:26:05;;;;;;;2.80;1.70;;;7.80;99.90;;;;;;5088902;28;19908;-48
2023/04/14 05:28:31;;;;;;;7.18;2.63;;;7.80;99.90;;;;;;5067845;28;20043;-50
2023/04/14 05:30:56;;;;;;;5.47;2.88;;;7.80;99.90;;;;;;5069510;28;20032;-47
2023/04/14 05:33:22;;;;;;;;;;;7.80;99.90;;;;;;5040620;28;1008791;-46
2023/04/14 05:35:49;;;;;;;7.57;2.87;;;7.90;99.90;;;;;;5089895;28;19965;-48
2023/04/14 05:38:16;;;;;;;4.18;2.40;;;7.90;99.90;;;;;;5068229;28;20032;-46
2023/04/14 05:40:41;;;;;;;5.85;2.85;;;7.90;99.90;;;;;;5089898;28;20063;-47
2023/04/14 05:43:07;;;;;;;7.88;3.83;;;8.00;99.90;;;;;;5077160;28;20070;-52
2023/04/14 05:45:32;;;;;;;8.68;3.55;;;8.00;99.90;;;;;;5084118;28;20028;-49
2023/04/14 05:47:58;;;;;;;8.13;4.15;;;8.00;99.90;;;;;;5076280;28;20020;-50
2023/04/14 05:50:24;;;;;;;8.05;3.15;;;8.10;99.90;;;;;;5090129;28;20077;-45
2023/04/14 05:52:50;;;;;;;6.00;3.58;;;8.10;99.90;;;;;;5074888;28;20510;-48
2023/04/14 05:55:16;;;;;;;4.85;3.25;;;8.10;99.90;;;;;;5090163;28;20515;-49
2023/04/14 05:57:41;;;;;;;5.45;3.13;;;8.20;99.90;;;;;;5074466;28;20036;-45
2023/04/14 06:00:08;;;;;;;4.50;3.00;;;8.20;99.90;;;;;;5089304;28;20028;-49
2023/04/14 06:02:34;;;;;;;6.55;3.90;;;8.20;99.90;;;;;;5070579;28;20038;-49
2023/04/14 06:05:00;;;;;;;6.97;3.88;;;8.30;99.90;;;;;;5072019;28;20443;-46
2023/04/14 06:07:26;;;;;;;8.45;4.55;;;8.30;99.90;;;;;;5076446;28;20092;-45
2023/04/14 06:09:51;;;;;;;9.52;4.07;;;8.30;99.90;;;;;;5075074;28;20116;-48
2023/04/14 06:12:17;;;;;;;7.10;4.13;;;8.40;99.90;;;;;;5068892;28;20529;-48
2023/04/14 06:14:43;;;;;;;6.40;3.58;;;8.40;99.90;;;;;;5090000;28;20023;-47
2023/04/14 06:17:08;;;;;;;5.07;3.67;;;8.40;99.90;;;;;;5065532;28;20016;-49
2023/04/14 06:19:34;;;;;;;5.20;3.42;;;8.40;99.90;;;;;;5068733;28;20112;-46
2023/04/14 06:21:59;;;;;;;4.68;2.83;;;8.50;99.90;;;;;;5065443;28;20028;-48
2023/04/14 06:24:25;;;;;;;5.70;3.92;;;8.50;99.90;;;;;;5069327;28;20050;-46
2023/04/14 06:26:51;;;;;;;8.07;4.07;;;8.50;99.90;;;;;;5069125;28;20067;-44
2023/04/14 06:29:16;;;;;;;6.35;3.45;;;8.50;99.90;;;;;;5069904;28;20039;-46
2023/04/14 06:31:42;;;;;;;7.28;3.60;;;8.50;99.90;;;;;;5067716;28;20028;-48
2023/04/14 06:34:07;;;;;;;6.90;3.67;;;8.50;99.90;;;;;;5086621;28;20052;-44
2023/04/14 06:36:33;;;;;;;6.82;3.40;;;8.60;99.90;;;;;;5084731;28;20032;-49
2023/04/14 06:38:59;;;;;;;8.63;3.72;;;8.60;99.90;;;;;;5069463;28;20032;-49
2023/04/14 06:41:25;;;;;;;6.63;3.53;;;8.60;99.90;;;;;;5066676;28;20389;-45
2023/04/14 06:43:50;;;;;;;4.63;3.33;;;8.60;99.90;;;;;;5082623;28;20036;-47
2023/04/14 06:46:16;;;;;;;7.22;2.78;;;8.70;99.90;;;;;;5089002;28;20028;-49
2023/04/14 06:48:42;;;;;;;5.20;2.70;;;8.70;99.90;;;;;;5067605;28;20035;-44
2023/04/14 06:51:11;;;;;;;3.65;2.58;;;8.70;99.90;;;;;;5074900;28;20384;-46
2023/04/14 06:53:36;;;;;;;4.97;2.83;;;8.70;99.90;;;;;;5065014;28;20120;-45
2023/04/14 06:56:02;;;;;;;4.45;2.67;;;8.70;99.90;;;;;;5070453;28;20107;-44
2023/04/14 06:58:28;;;;;;;4.32;2.40;;;8.80;99.90;;;;;;5088801;28;20028;-47
2023/04/14 07:00:58;;;;;;;2.90;2.30;;;8.80;99.90;;;;;;5067293;28;20353;-47
2023/04/14 07:03:24;;;;;;;9.48;3.47;;;8.80;99.90;;;;;;5068524;28;20038;-47
2023/04/14 07:05:50;;;;;;;3.83;2.63;;;8.90;99.90;;;;;;5081908;28;20024;-57
2023/04/14 07:08:17;;;;;;;6.63;3.13;;;8.90;99.90;;;;;;5068387;28;20443;-56
2023/04/14 07:10:42;;;;;;;6.75;2.72;;;9.00;99.90;;;;;;5085712;28;20031;-56
2023/04/14 07:13:08;;;;;;;5.32;2.88;;;9.00;99.90;;;;;;5075101;28;20024;-56
2023/04/14 07:15:33;;;;;;;6.53;2.92;;;9.00;99.90;;;;;;5065436;28;20523;-55
2023/04/14 07:17:59;;;;;;;7.60;3.28;;;9.10;99.90;;;;;;5088525;28;20043;-55
2023/04/14 07:20:25;;;;;;;4.57;2.97;;;9.10;99.90;;;;;;5069026;28;20071;-56
2023/04/14 07:22:50;;;;;;;6.90;3.20;;;9.10;99.90;;;;;;5085853;28;20059;-56
2023/04/14 07:25:17;;;;;;;5.80;3.55;;;9.10;99.90;;;;;;5086587;28;20532;-57
2023/04/14 07:27:42;;;;;;;6.35;3.42;;;9.10;99.90;;;;;;5088228;28;20024;-58
2023/04/14 07:30:08;;;;;;;6.82;3.75;;;9.20;99.90;;;;;;5068215;28;20047;-55
2023/04/14 07:32:34;;;;;;;7.50;3.63;;;9.20;99.90;;;;;;5062437;28;20470;-57
2023/04/14 07:34:59;;;;;;;8.50;4.00;;;9.20;99.90;;;;;;5064760;28;20021;-57
2023/04/14 07:37:25;;;;;;;5.90;3.53;;;9.20;99.90;;;;;;5063777;28;20404;-56
2023/04/14 07:39:50;;;;;;;4.82;3.00;;;9.30;99.90;;;;;;5066657;28;20025;-55
2023/04/14 07:42:16;;;;;;;8.57;3.72;;;9.30;99.90;;;;;;5071754;28;20028;-58
2023/04/14 07:44:42;;;;;;;7.18;3.53;;;9.30;99.90;;;;;;5071129;28;20070;-56
2023/04/14 07:47:07;;;;;;;7.57;3.35;;;9.40;99.90;;;;;;5075937;28;20499;-56
2023/04/14 07:49:35;;;;;;;4.57;3.20;;;9.40;99.90;;;;;;5068554;28;20536;-57
2023/04/14 07:52:01;;;;;;;6.75;4.38;;;9.50;99.90;;;;;;5084329;28;20031;-58
2023/04/14 07:54:27;;;;;;;9.13;4.22;;;9.50;99.90;;;;;;5068622;28;20511;-58
2023/04/14 07:56:52;;;;;;;6.13;4.70;;;9.50;99.90;;;;;;5085480;28;20034;-56
2023/04/14 07:59:18;;;;;;;8.35;5.00;;;9.50;99.90;;;;;;5068759;28;20107;-56
2023/04/14 08:01:44;;;;;;;7.93;4.90;;;9.50;99.90;;;;;;5085860;28;20544;-56
2023/04/14 08:04:10;;;;;;;9.13;4.05;;;9.60;99.90;;;;;;5068394;28;20459;-56
2023/04/14 08:06:35;;;;;;;6.85;4.13;;;9.60;99.90;;;;;;5079479;28;20499;-57
2023/04/14 08:09:01;;;;;;;4.18;3.60;;;9.60;99.90;;;;;;5088106;28;20320;-57
2023/04/14 08:11:26;;;;;;;6.22;4.10;;;9.60;99.90;;;;;;5071962;28;20038;-57
2023/04/14 08:13:52;;;;;;;7.63;4.53;;;9.60;99.90;;;;;;5088088;28;20111;-56
2023/04/14 08:16:18;;;;;;;6.90;4.47;;;9.70;99.90;;;;;;5070757;28;20024;-56
2023/04/14 08:18:44;;;;;;;6.40;3.78;;;9.60;99.90;;;;;;5088148;28;20024;-56
2023/04/14 08:21:10;;;;;;;6.22;3.90;;;9.60;99.90;;;;;;5068241;28;20036;-56
2023/04/14 08:23:35;;;;;;;7.50;5.53;;;9.60;99.90;;;;;;5087871;28;20081;-57
2023/04/14 08:26:03;;;;;;;5.60;4.55;;;9.60;99.90;;;;;;5068386;28;20499;-57
2023/04/14 08:28:28;;;;;;;6.38;4.53;;;9.60;99.90;;;;;;5091796;28;20024;-57
2023/04/14 08:30:54;;;;;;;7.10;4.50;;;9.60;99.90;;;;;;5071048;28;20077;-55
2023/04/14 08:33:20;;;;;;;7.15;4.90;;;9.60;99.90;;;;;;5083580;28;20186;-55
2023/04/14 08:35:45;;;;;;;9.23;5.80;;;9.60;99.90;;;;;;5090339;28;20024;-57
2023/04/14 08:38:11;;;;;;;7.18;4.78;;;9.50;99.90;;;;;;5091715;28;20024;-56
2023/04/14 08:40:39;;;;;;;5.03;4.03;;;9.40;99.90;;;;;;5071656;28;20051;-55
2023/04/14 08:43:05;;;;;;;6.65;4.82;;;9.30;99.90;;;;;;5088951;28;20042;-56
2023/04/14 08:45:31;;;;;;;7.47;5.18;;;9.40;99.90;;;;;;5091243;28;20092;-54
2023/04/14 08:48:02;;;;;;;9.48;5.20;;;9.30;99.90;;;;;;5069574;28;20025;-57
2023/04/14 08:50:34;;;;;;;9.95;6.70;;;9.30;99.90;;;;;;5090725;28;20098;-56
2023/04/14 08:53:04;;;;;;;10.60;6.93;;;9.20;99.90;;;;;;5086315;28;20032;-56
2023/04/14 08:55:32;;;;;;;9.43;5.70;;;9.10;99.90;;;;;;5090987;28;20028;-56
2023/04/14 08:57:59;;;;;;;8.75;6.03;;;9.10;99.90;;;;;;5069283;28;20027;-57
2023/04/14 09:00:25;;;;;;;8.35;6.05;;;9.10;99.90;;;;;;5090669;28;20026;-57
2023/04/14 09:02:51;;;;;;;12.85;6.78;;;9.10;99.90;;;;;;5069450;28;20401;-57
2023/04/14 09:05:17;;;;;;;10.98;6.18;;;9.10;99.90;;;;;;5077412;28;20035;-57
2023/04/14 09:07:43;;;;;;;8.15;5.95;;;9.10;99.90;;;;;;5088264;28;20036;-54
2023/04/14 09:10:11;;;;;;;9.48;6.10;;;9.10;99.90;;;;;;5089301;28;20024;-57
2023/04/14 09:12:38;;;;;;;11.55;6.93;;;9.20;99.90;;;;;;5069101;28;20074;-57
2023/04/14 09:15:04;;;;;;;9.95;7.13;;;9.20;99.90;;;;;;5090201;28;20115;-54
2023/04/14 09:17:30;;;;;;;8.85;6.03;;;9.20;99.90;;;;;;5069106;28;20029;-56
2023/04/14 09:19:56;;;;;;;8.77;6.32;;;9.30;99.90;;;;;;5089915;28;20518;-56
2023/04/14 09:22:22;;;;;;;8.60;6.03;;;9.30;99.90;;;;;;5069065;28;20092;-57
2023/04/14 09:24:47;;;;;;;10.68;7.60;;;9.30;99.90;;;;;;5089757;28;20024;-57
2023/04/14 09:27:13;;;;;;;10.75;7.38;;;9.30;99.90;;;;;;5068738;28;20028;-56
2023/04/14 09:29:40;;;;;;;9.05;7.10;;;9.20;99.90;;;;;;5089585;28;20028;-57
2023/04/14 09:32:06;;;;;;;13.18;7.38;;;9.20;99.90;;;;;;5079735;28;20036;-57
2023/04/14 09:34:32;;;;;;;10.75;7.97;;;9.10;99.90;;;;;;5070450;28;20048;-56
2023/04/14 09:37:03;;;;;;;11.23;7.55;;;9.10;99.90;;;;;;5087893;28;20035;-57
2023/04/14 09:39:29;;;;;;;10.65;7.13;;;9.00;99.90;;;;;;5069139;28;20024;-57
2023/04/14 09:41:54;;;;;;;10.18;6.28;;;9.00;99.90;;;;;;5087604;28;20096;-57
2023/04/14 09:44:21;;;;;;;8.93;7.10;;;9.10;99.90;;;;;;5069191;28;20048;-56
2023/04/14 09:47:00;;;;;;;9.48;6.68;;;9.10;99.90;;;;;;5086289;28;20488;-56
2023/04/14 09:49:26;;;;;;;9.18;6.38;;;9.10;99.90;;;;;;5068681;28;20055;-57
2023/04/14 09:51:54;;;;;;;7.72;5.78;;;9.10;99.90;;;;;;5086162;28;20112;-58
2023/04/14 09:54:26;;;;;;;8.43;5.15;;;9.10;99.90;;;;;;5068621;28;20372;-54
2023/04/14 09:56:55;;;;;;;6.97;4.95;;;9.10;99.90;;;;;;5087545;28;20020;-57
2023/04/14 09:59:33;;;;;;;7.00;5.15;;;9.10;99.90;;;;;;5069928;28;20035;-55
2023/04/14 10:02:04;;;;;;;10.50;5.70;;;9.10;99.90;;;;;;5086380;28;20024;-58
2023/04/14 10:04:31;;;;;;;7.57;5.10;;;9.00;99.90;;;;;;5051038;28;20090;-50
2023/04/14 10:06:59;;;;;;;6.68;4.75;;;9.00;99.90;;;;;;5087930;28;20020;-58
2023/04/14 10:09:26;;;;;;;6.68;3.88;;;9.00;99.90;;;;;;5069497;28;20060;-57
2023/04/14 10:12:09;;;;;;;9.57;6.28;;;9.10;99.90;;;;;;5087215;28;20091;-54
2023/04/14 10:14:40;;;;;;;9.15;5.15;;;9.10;99.90;;;;;;5068252;28;20036;-55
2023/04/14 10:17:08;;;;;;;12.02;5.85;;;9.00;99.90;;;;;;5087170;28;20151;-57
2023/04/14 10:19:35;;;;;;;8.82;5.75;;;9.00;99.90;;;;;;5068126;28;20033;-57
2023/04/14 10:22:01;;;;;;;8.68;5.00;;;8.90;99.90;;;;;;5086943;28;20408;-55
2023/04/14 10:24:27;;;;;;;6.60;4.43;;;9.00;99.90;;;;;;5069653;28;20510;-56
2023/04/14 10:26:54;;;;;;;8.18;5.03;;;9.00;99.90;;;;;;5086809;28;20150;-58
2023/04/14 10:29:20;;;;;;;8.07;5.20;;;9.00;99.90;;;;;;5069260;28;20024;-57
2023/04/14 10:31:50;;;;;;;9.00;5.57;;;8.90;99.90;;;;;;5086625;28;20558;-57
2023/04/14 10:34:16;;;;;;;9.43;5.18;;;9.00;99.90;;;;;;5068779;28;20048;-55
2023/04/14 10:36:42;;;;;;;7.80;5.38;;;9.00;99.90;;;;;;5086866;28;20020;-56
2023/04/14 10:39:10;;;;;;;7.93;5.57;;;9.00;99.90;;;;;;5089413;28;20020;-57
2023/04/14 10:41:46;;;;;;;8.52;5.40;;;9.10;99.90;;;;;;5074190;28;20036;-58
2023/04/14 10:44:28;;;;;;;11.27;6.07;;;9.00;99.90;;;;;;5089051;28;20024;-57
2023/04/14 10:46:55;;;;;;;10.27;5.30;;;9.00;99.90;;;;;;5065822;28;20107;-57
2023/04/14 10:49:40;;;;;;;8.75;5.78;;;9.00;99.90;;;;;;5068767;28;20024;-58
2023/04/14 10:52:26;;;;;;;7.95;5.20;;;8.90;99.90;;;;;;5086465;28;20047;-57
2023/04/14 10:55:00;;;;;;;9.43;5.22;;;9.00;99.90;;;;;;5048598;28;20025;-58
2023/04/14 10:57:27;;;;;;;7.68;5.22;;;9.00;99.90;;;;;;5074620;28;20031;-57
2023/04/14 10:59:57;;;;;;;9.02;5.38;;;9.10;99.90;;;;;;5088915;28;20028;-56
2023/04/14 11:02:33;;;;;;;8.45;5.25;;;9.10;99.90;;;;;;5073631;28;20043;-56
2023/04/14 11:05:07;;;;;;;12.52;5.22;;;9.00;99.90;;;;;;5078765;28;20063;-56
2023/04/14 11:07:46;;;;;;;10.48;4.78;;;8.80;99.90;;;;;;5081635;28;20683;-57
2023/04/14 11:10:20;;;;;;;9.65;5.30;;;8.80;99.90;;;;;;5048546;28;20485;-56
2023/04/14 11:13:04;;;;;;;7.18;5.00;;;8.80;99.90;;;;;;5085713;28;20024;-58
2023/04/14 11:15:49;;;;;;;7.18;4.80;;;8.80;99.90;;;;;;5087315;28;20030;-58
2023/04/14 11:18:33;;;;;;;8.07;4.45;;;8.80;99.90;;;;;;5088793;28;20216;-55
2023/04/14 11:21:07;;;;;;;6.85;4.82;;;8.90;99.90;;;;;;5050096;28;20044;-58
2023/04/14 11:23:35;;;;;;;8.13;4.45;;;9.00;99.90;;;;;;5088765;28;20476;-57
2023/04/14 11:26:01;;;;;;;7.35;4.60;;;9.20;99.90;;;;;;5068810;28;20097;-57
2023/04/14 11:28:31;;;;;;;9.35;5.72;;;9.20;99.90;;;;;;5088591;28;20039;-55
2023/04/14 11:30:58;;;;;;;8.48;4.90;;;9.20;99.90;;;;;;5068186;28;20020;-56
2023/04/14 11:33:27;;;;;;;9.75;5.80;;;9.30;99.90;;;;;;5079940;28;20127;-55
2023/04/14 11:35:53;;;;;;;7.03;5.28;;;9.30;99.90;;;;;;5086662;28;20028;-57
2023/04/14 11:38:19;;;;;;;9.77;5.38;;;9.30;99.90;;;;;;5087193;28;20452;-56
2023/04/14 11:40:49;;;;;;;7.38;5.20;;;9.30;99.90;;;;;;5068589;28;20386;-58
2023/04/14 11:43:15;;;;;;;7.88;4.97;;;9.40;99.90;;;;;;5068359;28;20033;-57
2023/04/14 11:45:42;;;;;;;9.43;5.72;;;9.50;99.90;;;;;;5087794;28;20031;-57
2023/04/14 11:48:11;;;;;;;7.43;5.28;;;9.40;99.90;;;;;;5086647;28;20093;-56
2023/04/14 11:50:37;;;;;;;10.25;5.75;;;9.40;99.90;;;;;;5068518;28;20028;-53
2023/04/14 11:53:11;;;;;;;9.70;6.53;;;9.50;99.90;;;;;;5086032;28;20446;-55
2023/04/14 11:55:59;;;;;;;11.40;5.72;;;9.30;99.90;;;;;;5088299;28;20430;-57
2023/04/14 11:58:26;;;;;;;9.70;5.88;;;9.30;99.90;;;;;;5046852;28;20021;-57
2023/04/14 12:00:52;;;;;;;11.02;6.47;;;9.30;99.90;;;;;;5085379;28;20032;-57
2023/04/14 12:03:19;;;;;;;9.75;5.40;;;9.30;99.90;;;;;;5092191;28;20047;-58
2023/04/14 12:05:45;;;;;;;7.55;5.63;;;9.40;99.90;;;;;;5079714;28;20495;-55
2023/04/14 12:08:11;;;;;;;7.88;5.13;;;9.40;99.90;;;;;;5090760;28;20042;-58
2023/04/14 12:10:38;;;;;;;9.40;5.43;;;9.40;99.90;;;;;;5072336;28;20025;-57
2023/04/14 12:13:06;;;;;;;9.27;5.22;;;9.50;99.90;;;;;;5089709;28;20440;-57
2023/04/14 12:15:37;;;;;;;7.63;5.60;;;9.50;99.90;;;;;;5092117;28;20081;-57
2023/04/14 12:18:06;;;;;;;8.95;5.57;;;9.40;99.90;;;;;;5088012;28;20482;-57
2023/04/14 12:20:43;;;;;;;9.80;5.95;;;9.40;99.90;;;;;;5091948;28;20088;-57
2023/04/14 12:23:09;;;;;;;6.97;5.13;;;9.40;99.90;;;;;;5090058;28;20032;-57
2023/04/14 12:25:35;;;;;;;7.65;4.95;;;9.50;99.90;;;;;;5072317;28;20021;-58
2023/04/14 12:28:04;;;;;;;9.27;5.00;;;9.50;99.90;;;;;;5087972;28;20605;-55
2023/04/14 12:30:30;;;;;;;8.38;5.20;;;9.60;99.90;;;;;;5091867;28;20115;-57
2023/04/14 12:32:56;;;;;;;5.93;4.53;;;9.50;99.90;;;;;;5074367;28;20115;-55
2023/04/14 12:35:22;;;;;;;9.30;6.43;;;9.60;99.90;;;;;;5091835;28;20023;-58
2023/04/14 12:37:49;;;;;;;8.57;6.13;;;9.50;99.90;;;;;;5069966;28;20029;-58
2023/04/14 12:40:15;;;;;;;9.23;5.63;;;9.40;99.90;;;;;;5089704;28;20113;-55
2023/04/14 12:42:49;;;;;;;10.02;7.13;;;9.40;99.90;;;;;;5069937;28;20040;-58
2023/04/14 12:45:15;;;;;;;8.63;5.72;;;9.30;99.90;;;;;;5051393;28;20029;-58
2023/04/14 12:47:54;;;;;;;12.02;6.78;;;9.30;99.90;;;;;;5121123;27;20050;-56
2023/04/14 12:50:31;;;;;;;11.10;7.75;;;9.40;99.90;;;;;;5051222;28;20370;-57
2023/04/14 12:52:58;;;;;;;7.22;5.55;;;9.40;99.90;;;;;;5085578;28;20024;-58
2023/04/14 12:55:29;;;;;;;8.05;6.18;;;9.40;99.90;;;;;;5089899;28;20084;-59
2023/04/14 12:57:55;;;;;;;8.35;6.47;;;9.30;99.90;;;;;;5069439;28;20036;-57
2023/04/14 13:00:22;;;;;;;8.43;6.22;;;9.30;99.90;;;;;;5090631;28;20124;-57
2023/04/14 13:02:49;;;;;;;9.80;7.63;;;9.40;99.90;;;;;;5069200;28;20024;-58